createdAt,value
2019-03-27T21:02:20.398Z,8.70
2019-03-27T21:06:25.106Z,7.83
2019-03-27T21:10:29.673Z,7.03
2019-03-27T21:14:34.213Z,7.40
2019-03-27T21:18:38.752Z,7.53
2019-03-27T21:22:43.271Z,8.18
2019-03-27T21:26:47.806Z,7.22
2019-03-27T21:30:52.337Z,8.28
2019-03-27T21:34:56.873Z,7.40
2019-03-27T21:39:01.413Z,7.05
2019-03-27T21:43:05.922Z,7.53
2019-03-27T21:47:10.529Z,7.47
2019-03-27T21:51:15.093Z,8.70
2019-03-27T21:55:22.787Z,8.63
2019-03-27T22:03:29.529Z,8.33
2019-03-27T22:07:34.093Z,8.03
2019-03-27T22:11:38.678Z,22.07
2019-03-27T22:15:43.222Z,23.90
2019-03-27T22:19:47.766Z,21.00
2019-03-27T22:23:52.373Z,18.20
2019-03-27T22:27:57.054Z,16.90
2019-03-27T22:32:02.989Z,14.93
2019-03-27T22:36:07.775Z,13.32
2019-03-27T22:40:13.198Z,14.00
2019-03-27T22:44:18.450Z,12.50
2019-03-27T22:48:23.050Z,12.75
2019-03-27T22:52:27.626Z,11.75
2019-03-27T22:56:32.201Z,11.88
2019-03-27T23:00:49.859Z,11.28
2019-03-27T23:04:54.581Z,10.32
2019-03-27T23:08:59.193Z,10.08
2019-03-27T23:13:03.810Z,10.10
2019-03-27T23:17:08.337Z,10.15
2019-03-27T23:21:12.893Z,9.88
2019-03-27T23:25:17.446Z,9.98
2019-03-27T23:29:22.072Z,9.40
2019-03-27T23:33:26.594Z,8.53
2019-03-27T23:37:31.134Z,8.98
2019-03-27T23:41:35.677Z,9.88
2019-03-27T23:45:40.217Z,8.93
2019-03-27T23:49:44.749Z,8.25
2019-03-27T23:53:49.269Z,8.50
2019-03-27T23:57:53.877Z,8.48
